Time;durP1;ratioP1;P1;durP2;ratioP2;P2;SDS_P1;SDS_P2;PMS_P1;PMS_P2;Temp;Humidity;BMP_temperature;BMP_pressure;BME280_temperature;BME280_humidity;BME280_pressure;Samples;Min_cycle;Max_cycle;Signal;HPM_P1;HPM_P2
2023/12/04 00:03:21;;;;;;;13.37;6.53;;;;;;;;;;10554897;27;20066;-75
2023/12/04 00:08:26;;;;;;;12.73;5.10;;;;;;;;;;10563053;27;20059;-76
2023/12/04 00:13:28;;;;;;;16.73;5.20;;;;;;;;;;10547717;27;20036;-75
2023/12/04 00:18:33;;;;;;;11.00;4.40;;;;;;;;;;10560270;27;20489;-74
2023/12/04 00:23:38;;;;;;;14.93;5.23;;;;;;;;;;10560508;27;20067;-74
2023/12/04 00:28:41;;;;;;;;;;;;;;;;;;10541551;27;20532;-73
2023/12/04 00:33:44;;;;;;;16.37;4.57;;;;;;;;;;10561821;27;20008;-74
2023/12/04 00:38:49;;;;;;;19.50;7.00;;;;;;;;;;10558667;27;20062;-73
2023/12/04 00:43:52;;;;;;;14.63;5.43;;;;;;;;;;10555271;27;20039;-74
2023/12/04 00:48:55;;;;;;;23.23;8.07;;;;;;;;;;10543363;27;20039;-74
2023/12/04 00:54:01;;;;;;;17.50;6.73;;;;;;;;;;10542368;27;20035;-74
2023/12/04 00:59:06;;;;;;;16.53;7.57;;;;;;;;;;10558833;28;20265;-75
2023/12/04 01:04:09;;;;;;;11.97;4.50;;;;;;;;;;10538882;27;20071;-75
2023/12/04 01:09:13;;;;;;;17.53;7.67;;;;;;;;;;10557137;27;20523;-74
2023/12/04 01:14:16;;;;;;;14.87;5.63;;;;;;;;;;10536594;27;20036;-74
2023/12/04 01:19:19;;;;;;;15.40;6.15;;;;;;;;;;10551768;27;20523;-75
2023/12/04 01:24:24;;;;;;;16.53;6.47;;;;;;;;;;10540732;27;20130;-75
2023/12/04 01:29:28;;;;;;;17.47;6.43;;;;;;;;;;10537050;27;20639;-74
2023/12/04 01:34:33;;;;;;;16.17;4.87;;;;;;;;;;10549559;27;20038;-74
2023/12/04 01:39:40;;;;;;;10.20;4.17;;;;;;;;;;10552847;27;20358;-74
2023/12/04 01:44:46;;;;;;;11.77;4.43;;;;;;;;;;10552271;27;20043;-75
2023/12/04 01:49:49;;;;;;;14.73;5.47;;;;;;;;;;10571503;27;20052;-74
2023/12/04 01:54:53;;;;;;;14.67;6.20;;;;;;;;;;10555800;27;20122;-75
2023/12/04 01:59:56;;;;;;;19.40;6.67;;;;;;;;;;10526713;28;20486;-75
2023/12/04 02:05:00;;;;;;;18.37;7.27;;;;;;;;;;10532294;27;20117;-75
2023/12/04 02:10:06;;;;;;;22.90;8.00;;;;;;;;;;10534725;27;20049;-75
2023/12/04 02:15:10;;;;;;;14.67;6.47;;;;;;;;;;10536508;27;20032;-75
2023/12/04 02:20:13;;;;;;;17.25;6.90;;;;;;;;;;10535467;27;20050;-75
2023/12/04 02:25:19;;;;;;;22.52;7.57;;;;;;;;;;10534239;27;20612;-74
2023/12/04 02:30:40;;;;;;;19.43;8.47;;;;;;;;;;10549346;28;20044;-74
2023/12/04 02:35:43;;;;;;;16.13;6.90;;;;;;;;;;10550904;27;20044;-74
2023/12/04 02:40:47;;;;;;;22.77;8.07;;;;;;;;;;10549832;27;20047;-75
2023/12/04 02:45:50;;;;;;;17.27;7.10;;;;;;;;;;10530626;27;20040;-75
2023/12/04 02:50:54;;;;;;;20.20;7.60;;;;;;;;;;10532728;28;20036;-74
2023/12/04 02:55:58;;;;;;;23.90;7.93;;;;;;;;;;10540122;27;20038;-75
2023/12/04 03:01:01;;;;;;;19.43;7.80;;;;;;;;;;10550776;27;20058;-75
2023/12/04 03:06:04;;;;;;;21.37;8.30;;;;;;;;;;10566892;27;20047;-75
2023/12/04 03:11:09;;;;;;;20.60;8.03;;;;;;;;;;10547494;27;20055;-75
2023/12/04 03:16:16;;;;;;;24.47;8.57;;;;;;;;;;10560894;27;20097;-74
2023/12/04 03:21:18;;;;;;;20.20;7.17;;;;;;;;;;10547829;27;22054;-75
2023/12/04 03:26:24;;;;;;;17.90;7.07;;;;;;;;;;10551279;27;20036;-79
2023/12/04 03:31:28;;;;;;;19.45;7.25;;;;;;;;;;10565226;27;20128;-75
2023/12/04 03:36:31;;;;;;;20.85;8.43;;;;;;;;;;10543802;27;20038;-75
2023/12/04 03:41:36;;;;;;;18.93;7.57;;;;;;;;;;10530807;27;20043;-75
2023/12/04 03:46:39;;;;;;;21.40;8.00;;;;;;;;;;10562774;27;20116;-75
2023/12/04 03:51:43;;;;;;;24.25;8.48;;;;;;;;;;10549773;27;20038;-76
2023/12/04 03:56:49;;;;;;;19.67;7.07;;;;;;;;;;10546273;27;20370;-75
2023/12/04 04:01:53;;;;;;;18.03;6.97;;;;;;;;;;10558593;27;20043;-75
2023/12/04 04:06:56;;;;;;;20.50;7.85;;;;;;;;;;10539031;27;20051;-77
2023/12/04 04:12:00;;;;;;;20.55;7.68;;;;;;;;;;10560267;27;20043;-76
2023/12/04 04:17:04;;;;;;;18.37;6.87;;;;;;;;;;10556367;27;20043;-77
2023/12/04 04:22:07;;;;;;;21.83;7.30;;;;;;;;;;10544827;27;20056;-76
2023/12/04 04:27:11;;;;;;;17.60;6.83;;;;;;;;;;10575052;27;20039;-75
2023/12/04 04:32:15;;;;;;;17.30;7.43;;;;;;;;;;10542437;27;20515;-76
2023/12/04 04:37:17;;;;;;;19.60;8.57;;;;;;;;;;10537384;27;20071;-75
2023/12/04 04:42:23;;;;;;;13.93;4.87;;;;;;;;;;10556306;27;20143;-75
2023/12/04 04:47:26;;;;;;;17.50;6.80;;;;;;;;;;10554934;27;20043;-75
2023/12/04 04:52:29;;;;;;;11.52;5.47;;;;;;;;;;10539350;27;20128;-76
2023/12/04 04:57:36;;;;;;;18.67;6.07;;;;;;;;;;10534331;27;20055;-75
2023/12/04 05:02:39;;;;;;;18.30;7.20;;;;;;;;;;10539134;28;20505;-76
2023/12/04 05:07:41;;;;;;;16.90;6.67;;;;;;;;;;10556289;28;20032;-75
2023/12/04 05:12:45;;;;;;;17.70;6.60;;;;;;;;;;10537935;27;20529;-75
2023/12/04 05:17:48;;;;;;;13.73;6.20;;;;;;;;;;10554762;27;20044;-75
2023/12/04 05:22:52;;;;;;;12.67;5.07;;;;;;;;;;10558300;28;20162;-76
2023/12/04 05:27:56;;;;;;;10.35;4.45;;;;;;;;;;10535170;27;20039;-76
2023/12/04 05:33:00;;;;;;;16.53;6.10;;;;;;;;;;10556436;27;20047;-76
2023/12/04 05:38:02;;;;;;;15.63;6.07;;;;;;;;;;10553713;27;20112;-76
2023/12/04 05:43:07;;;;;;;18.83;6.23;;;;;;;;;;10535998;27;20035;-75
2023/12/04 05:48:10;;;;;;;18.53;6.37;;;;;;;;;;10536612;27;20036;-75
2023/12/04 05:53:14;;;;;;;18.05;6.85;;;;;;;;;;10552618;27;20461;-74
2023/12/04 05:58:19;;;;;;;14.00;6.00;;;;;;;;;;10531570;27;20043;-76
2023/12/04 06:03:22;;;;;;;17.23;6.90;;;;;;;;;;10570936;27;20539;-76
2023/12/04 06:08:25;;;;;;;16.50;6.53;;;;;;;;;;10535026;28;20169;-76
2023/12/04 06:13:29;;;;;;;18.93;6.57;;;;;;;;;;10552871;27;20108;-75
2023/12/04 06:18:36;;;;;;;;;;;;;;;;;;10551932;28;20116;-76
2023/12/04 06:23:39;;;;;;;14.07;5.93;;;;;;;;;;10550052;28;20186;-76
2023/12/04 06:28:48;;;;;;;21.10;6.88;;;;;;;;;;10549515;27;20531;-75
2023/12/04 06:33:52;;;;;;;19.43;6.87;;;;;;;;;;10548451;27;20730;-75
2023/12/04 06:38:58;;;;;;;13.57;5.47;;;;;;;;;;10542382;28;20036;-76
2023/12/04 06:44:03;;;;;;;20.37;7.50;;;;;;;;;;10548321;27;20055;-76
2023/12/04 06:49:06;;;;;;;18.43;6.70;;;;;;;;;;10548871;28;20464;-76
2023/12/04 06:54:09;;;;;;;20.25;7.63;;;;;;;;;;10491434;28;20048;-76
2023/12/04 06:59:13;;;;;;;18.30;7.13;;;;;;;;;;10561246;27;20536;-75
2023/12/04 07:04:20;;;;;;;14.80;6.13;;;;;;;;;;10528881;28;20056;-76
2023/12/04 07:09:24;;;;;;;18.83;7.33;;;;;;;;;;10545666;28;20066;-75
2023/12/04 07:14:28;;;;;;;18.33;6.87;;;;;;;;;;10537488;28;20044;-77
2023/12/04 07:19:32;;;;;;;14.57;5.43;;;;;;;;;;10534298;28;20460;-74
2023/12/04 07:24:35;;;;;;;12.90;5.23;;;;;;;;;;10550429;28;20050;-74
2023/12/04 07:29:42;;;;;;;17.80;6.43;;;;;;;;;;10518518;28;20480;-75
2023/12/04 07:34:45;;;;;;;11.83;4.83;;;;;;;;;;10557350;28;20064;-74
2023/12/04 07:39:58;;;;;;;9.57;4.57;;;;;;;;;;10534054;28;20624;-74
2023/12/04 07:45:03;;;;;;;11.47;4.53;;;;;;;;;;10557362;27;20047;-75
2023/12/04 07:50:07;;;;;;;9.80;4.17;;;;;;;;;;10522091;27;20176;-74
2023/12/04 07:55:10;;;;;;;18.30;6.10;;;;;;;;;;10545745;27;20180;-74
2023/12/04 08:00:17;;;;;;;15.40;5.75;;;;;;;;;;10537444;28;20768;-75
2023/12/04 08:05:20;;;;;;;16.80;4.37;;;;;;;;;;10557414;27;20562;-75
2023/12/04 08:10:24;;;;;;;15.00;5.60;;;;;;;;;;10535049;28;20661;-75
2023/12/04 08:15:28;;;;;;;10.98;4.63;;;;;;;;;;10558098;27;20052;-75
2023/12/04 08:20:31;;;;;;;;;;;;;;;;;;10572140;27;20043;-75
2023/12/04 08:25:41;;;;;;;15.67;5.53;;;;;;;;;;10555248;27;20364;-74
2023/12/04 08:30:47;;;;;;;9.32;4.10;;;;;;;;;;10556512;27;20043;-74
2023/12/04 08:35:50;;;;;;;15.03;5.00;;;;;;;;;;10539463;27;20043;-75
2023/12/04 08:40:54;;;;;;;11.60;5.22;;;;;;;;;;10572986;27;20048;-75
2023/12/04 08:45:58;;;;;;;14.73;4.70;;;;;;;;;;10541025;27;20162;-75
2023/12/04 08:51:01;;;;;;;;;;;;;;;;;;10557223;27;21143;-75
2023/12/04 08:56:05;;;;;;;9.07;4.53;;;;;;;;;;10550705;27;20316;-74
2023/12/04 09:01:11;;;;;;;11.65;4.80;;;;;;;;;;10541355;27;20100;-76
2023/12/04 09:06:15;;;;;;;17.37;6.60;;;;;;;;;;10556810;27;20513;-74
2023/12/04 09:11:19;;;;;;;14.83;5.60;;;;;;;;;;10522118;27;20061;-73
2023/12/04 09:16:27;;;;;;;18.60;6.30;;;;;;;;;;10536706;27;20119;-74
2023/12/04 09:21:30;;;;;;;15.70;5.87;;;;;;;;;;10556107;27;20065;-74
2023/12/04 09:26:33;;;;;;;15.33;5.67;;;;;;;;;;10530558;28;20146;-74
2023/12/04 09:31:38;;;;;;;18.27;8.27;;;;;;;;;;10544981;28;20049;-75
2023/12/04 09:36:43;;;;;;;19.23;8.80;;;;;;;;;;10518114;28;20051;-74
2023/12/04 09:41:47;;;;;;;;;;;;;;;;;;10550139;27;20044;-76
2023/12/04 09:46:52;;;;;;;23.93;9.27;;;;;;;;;;10553258;27;20057;-75
2023/12/04 09:51:56;;;;;;;26.00;9.70;;;;;;;;;;10554729;27;20133;-76
2023/12/04 09:57:01;;;;;;;25.92;9.23;;;;;;;;;;10533909;27;20047;-75
2023/12/04 10:02:06;;;;;;;19.83;7.77;;;;;;;;;;10535912;28;20046;-76
2023/12/04 10:07:09;;;;;;;18.80;7.93;;;;;;;;;;10551157;27;20067;-76
2023/12/04 10:12:13;;;;;;;22.47;8.70;;;;;;;;;;10548903;27;20042;-76
2023/12/04 10:17:18;;;;;;;22.20;8.90;;;;;;;;;;10552133;28;20463;-75
2023/12/04 10:22:22;;;;;;;25.63;8.80;;;;;;;;;;10547712;27;20083;-75
2023/12/04 10:27:27;;;;;;;17.90;7.20;;;;;;;;;;10531982;27;20039;-75
2023/12/04 10:32:31;;;;;;;21.27;9.02;;;;;;;;;;10548424;27;20043;-75
2023/12/04 10:37:36;;;;;;;24.53;9.53;;;;;;;;;;10551487;27;20440;-76
2023/12/04 10:42:39;;;;;;;23.03;8.90;;;;;;;;;;10531062;28;20512;-77
2023/12/04 10:47:44;;;;;;;20.60;7.93;;;;;;;;;;10529206;28;20060;-74
2023/12/04 10:52:48;;;;;;;22.90;9.27;;;;;;;;;;10547425;27;20504;-76
2023/12/04 10:57:52;;;;;;;;;;;;;;;;;;10514269;28;20036;-76
2023/12/04 11:02:59;;;;;;;20.60;9.67;;;;;;;;;;10551989;28;19927;-75
2023/12/04 11:08:04;;;;;;;23.93;9.00;;;;;;;;;;10565519;27;20039;-75
2023/12/04 11:13:27;;;;;;;27.67;9.80;;;;;;;;;;10554309;28;20049;-75
2023/12/04 11:18:34;;;;;;;27.80;11.27;;;;;;;;;;10539904;27;20055;-75
2023/12/04 11:23:38;;;;;;;28.03;11.30;;;;;;;;;;10540793;27;20058;-76
2023/12/04 11:28:42;;;;;;;22.25;9.25;;;;;;;;;;10554088;27;20127;-75
2023/12/04 11:33:47;;;;;;;25.67;10.80;;;;;;;;;;10559609;27;20728;-75
2023/12/04 11:38:51;;;;;;;27.90;11.70;;;;;;;;;;10537294;27;20494;-75
2023/12/04 11:43:56;;;;;;;32.13;11.57;;;;;;;;;;10578591;27;20170;-75
2023/12/04 11:49:15;;;;;;;19.73;9.60;;;;;;;;;;10557163;27;20373;-74
2023/12/04 11:54:24;;;;;;;29.53;10.73;;;;;;;;;;10556365;28;20044;-74
2023/12/04 11:59:28;;;;;;;22.23;9.80;;;;;;;;;;10556612;27;20032;-74
2023/12/04 12:04:31;;;;;;;28.83;10.83;;;;;;;;;;10556703;27;20122;-74
2023/12/04 12:09:36;;;;;;;23.13;9.10;;;;;;;;;;10569875;27;20489;-75
2023/12/04 12:14:39;;;;;;;25.43;10.07;;;;;;;;;;10568393;27;20132;-75
2023/12/04 12:19:42;;;;;;;32.27;11.20;;;;;;;;;;10554621;27;20108;-73
2023/12/04 12:24:47;;;;;;;27.80;10.87;;;;;;;;;;10554762;27;20501;-74
2023/12/04 12:29:51;;;;;;;33.10;10.97;;;;;;;;;;10554057;27;20035;-74
2023/12/04 12:34:55;;;;;;;25.47;9.17;;;;;;;;;;10541208;27;20581;-74
2023/12/04 12:40:00;;;;;;;24.83;9.73;;;;;;;;;;10552038;27;20373;-74
2023/12/04 12:45:03;;;;;;;20.87;9.03;;;;;;;;;;10554250;27;20358;-74
2023/12/04 12:50:10;;;;;;;29.43;9.83;;;;;;;;;;10521293;27;20044;-75
2023/12/04 12:55:23;;;;;;;22.60;8.47;;;;;;;;;;10563842;27;20304;-74
2023/12/04 13:00:28;;;;;;;22.50;8.80;;;;;;;;;;10532293;27;20401;-73
2023/12/04 13:05:32;;;;;;;16.53;7.63;;;;;;;;;;10556132;27;20058;-74
2023/12/04 13:10:39;;;;;;;25.10;10.30;;;;;;;;;;10553637;27;20040;-75
2023/12/04 13:15:43;;;;;;;21.13;8.60;;;;;;;;;;10532622;27;20036;-75
2023/12/04 13:20:46;;;;;;;;;;;;;;;;;;10570254;27;20039;-75
2023/12/04 13:25:54;;;;;;;20.43;7.83;;;;;;;;;;10559197;27;20528;-76
2023/12/04 13:30:58;;;;;;;20.17;8.70;;;;;;;;;;10538320;27;20039;-75
2023/12/04 13:36:01;;;;;;;24.43;8.37;;;;;;;;;;10561097;28;22086;-76
2023/12/04 13:43:49;;;;;;;24.37;9.50;;;;;;;;;;10548517;27;20130;-75
2023/12/04 13:46:43;;;;;;;16.60;6.90;;;;;;;;;;10538193;27;20046;-75
2023/12/04 13:51:49;;;;;;;21.52;7.95;;;;;;;;;;10535909;27;20031;-73
2023/12/04 13:56:58;;;;;;;27.60;11.13;;;;;;;;;;10533009;27;20053;-75
2023/12/04 14:02:04;;;;;;;23.30;10.67;;;;;;;;;;10552796;27;20047;-74
2023/12/04 14:07:08;;;;;;;25.37;9.63;;;;;;;;;;10531931;27;20269;-75
2023/12/04 14:12:14;;;;;;;22.50;8.30;;;;;;;;;;10554378;27;20043;-74
2023/12/04 14:17:19;;;;;;;25.40;10.80;;;;;;;;;;10530776;28;20095;-75
2023/12/04 14:22:24;;;;;;;27.80;11.13;;;;;;;;;;10548034;27;20714;-75
2023/12/04 14:27:32;;;;;;;20.80;9.43;;;;;;;;;;10546631;27;20070;-75
2023/12/04 14:32:37;;;;;;;25.70;9.20;;;;;;;;;;10531430;28;20533;-74
2023/12/04 14:37:50;;;;;;;17.57;7.37;;;;;;;;;;10532678;28;20464;-74
2023/12/04 14:42:54;;;;;;;15.88;6.10;;;;;;;;;;10533769;28;20744;-74
2023/12/04 14:47:59;;;;;;;20.67;6.47;;;;;;;;;;10534579;27;20043;-75
2023/12/04 14:53:15;;;;;;;22.70;8.83;;;;;;;;;;10527135;28;20048;-75
2023/12/04 14:58:59;;;;;;;23.00;7.70;;;;;;;;;;10533924;28;20043;-74
2023/12/04 15:14:40;;;;;;;24.60;8.53;;;;;;;;;;10550711;28;20058;-75
2023/12/04 15:19:57;;;;;;;20.07;8.47;;;;;;;;;;10552527;28;20047;-74
2023/12/04 15:25:01;;;;;;;19.07;6.70;;;;;;;;;;10534102;28;20199;-75
2023/12/04 15:30:08;;;;;;;25.88;8.50;;;;;;;;;;10553740;28;20054;-74
2023/12/04 15:35:12;;;;;;;20.93;8.47;;;;;;;;;;10521354;28;20043;-74
2023/12/04 15:40:16;;;;;;;17.37;6.97;;;;;;;;;;10560683;27;20046;-74
2023/12/04 15:45:20;;;;;;;23.80;9.97;;;;;;;;;;10564571;27;20036;-74
2023/12/04 15:50:25;;;;;;;18.80;8.90;;;;;;;;;;10537083;28;20127;-75
2023/12/04 15:55:28;;;;;;;;;;;;;;;;;;10554573;28;20040;-75
2023/12/04 16:00:33;;;;;;;20.60;8.23;;;;;;;;;;10532518;28;20027;-74
2023/12/04 16:05:36;;;;;;;19.87;7.97;;;;;;;;;;10566962;27;20085;-74
2023/12/04 16:10:39;;;;;;;22.83;8.83;;;;;;;;;;10530380;27;20585;-74
2023/12/04 16:15:46;;;;;;;24.83;8.07;;;;;;;;;;10543017;27;20305;-74
2023/12/04 16:20:48;;;;;;;24.10;8.60;;;;;;;;;;10562901;27;20036;-75
2023/12/04 16:25:52;;;;;;;25.17;8.70;;;;;;;;;;10535990;28;20540;-75
2023/12/04 16:30:57;;;;;;;18.25;8.35;;;;;;;;;;10542967;27;20072;-75
2023/12/04 16:36:00;;;;;;;24.13;7.83;;;;;;;;;;10544392;27;20036;-77
2023/12/04 16:41:04;;;;;;;19.27;6.77;;;;;;;;;;10543749;27;20054;-75
2023/12/04 16:46:08;;;;;;;26.60;9.13;;;;;;;;;;10560577;27;20036;-75
2023/12/04 16:51:12;;;;;;;17.87;8.07;;;;;;;;;;10559447;27;20297;-74
2023/12/04 17:02:53;;;;;;;23.20;8.97;;;;;;;;;;10555303;27;20028;-75
2023/12/04 17:07:57;;;;;;;;;;;;;;;;;;10550026;27;20050;-74
2023/12/04 17:13:02;;;;;;;23.88;10.18;;;;;;;;;;10559762;27;19923;-74
2023/12/04 17:18:05;;;;;;;23.03;8.57;;;;;;;;;;10520740;27;20047;-75
2023/12/04 17:23:09;;;;;;;17.10;6.70;;;;;;;;;;10535890;28;20047;-75
2023/12/04 17:28:13;;;;;;;10.13;4.10;;;;;;;;;;10551902;27;21283;-74
2023/12/04 17:33:17;;;;;;;18.70;7.17;;;;;;;;;;10535968;28;20040;-74
2023/12/04 17:38:25;;;;;;;25.40;10.40;;;;;;;;;;10534294;27;20105;-75
2023/12/04 17:43:33;;;;;;;5.37;3.13;;;;;;;;;;10540176;27;20027;-75
2023/12/04 17:48:37;;;;;;;29.00;10.60;;;;;;;;;;10557464;27;20159;-75
2023/12/04 17:53:40;;;;;;;17.20;6.07;;;;;;;;;;10536052;28;20034;-75
2023/12/04 17:58:45;;;;;;;10.18;4.63;;;;;;;;;;10529997;27;20419;-75
2023/12/04 18:03:48;;;;;;;25.17;10.43;;;;;;;;;;10551010;28;20043;-75
2023/12/04 18:08:53;;;;;;;22.47;9.77;;;;;;;;;;10536746;27;20051;-75
2023/12/04 18:13:57;;;;;;;23.60;10.57;;;;;;;;;;10551645;27;20101;-75
2023/12/04 18:19:00;;;;;;;29.97;10.77;;;;;;;;;;10541460;27;20562;-75
2023/12/04 18:24:04;;;;;;;28.77;10.37;;;;;;;;;;10534353;28;20500;-75
2023/12/04 18:29:10;;;;;;;24.50;10.67;;;;;;;;;;10536587;28;20412;-74
2023/12/04 18:34:15;;;;;;;26.10;10.10;;;;;;;;;;10539075;27;20370;-76
2023/12/04 18:39:24;;;;;;;24.20;10.50;;;;;;;;;;10530249;27;20542;-75
2023/12/04 18:44:29;;;;;;;19.93;9.37;;;;;;;;;;10563532;27;20040;-75
2023/12/04 18:49:32;;;;;;;24.20;8.93;;;;;;;;;;10531219;27;20089;-75
2023/12/04 18:54:36;;;;;;;29.20;10.53;;;;;;;;;;10566886;27;20401;-74
2023/12/04 18:59:40;;;;;;;32.83;11.50;;;;;;;;;;10568342;27;20112;-75
2023/12/04 19:04:46;;;;;;;28.53;11.23;;;;;;;;;;10518709;28;20080;-74
2023/12/04 19:09:49;;;;;;;22.20;9.20;;;;;;;;;;10515102;28;21608;-74
2023/12/04 19:14:53;;;;;;;32.33;10.90;;;;;;;;;;10538416;28;20141;-74
2023/12/04 19:19:56;;;;;;;19.17;7.68;;;;;;;;;;10554797;28;20044;-75
2023/12/04 19:24:59;;;;;;;18.77;8.33;;;;;;;;;;10553916;28;20051;-75
2023/12/04 19:30:08;;;;;;;28.60;8.97;;;;;;;;;;10544088;28;20040;-75
2023/12/04 19:35:16;;;;;;;26.33;10.33;;;;;;;;;;10562535;28;20474;-75
2023/12/04 19:40:19;;;;;;;31.80;10.10;;;;;;;;;;10537506;28;20036;-74
2023/12/04 19:45:25;;;;;;;18.38;8.13;;;;;;;;;;10541618;27;20060;-75
2023/12/04 19:50:29;;;;;;;25.07;9.33;;;;;;;;;;10553899;28;20193;-74
2023/12/04 19:55:32;;;;;;;29.45;9.75;;;;;;;;;;10554977;28;20043;-74
2023/12/04 20:00:39;;;;;;;17.43;7.77;;;;;;;;;;10540967;27;20043;-75
2023/12/04 20:05:42;;;;;;;31.23;11.93;;;;;;;;;;10552348;28;20154;-75
2023/12/04 20:10:47;;;;;;;34.23;11.43;;;;;;;;;;10555149;27;20096;-74
2023/12/04 20:15:51;;;;;;;21.23;7.47;;;;;;;;;;10571212;27;20092;-75
2023/12/04 20:20:54;;;;;;;24.13;10.32;;;;;;;;;;10568900;27;20489;-74
2023/12/04 20:25:58;;;;;;;23.65;9.15;;;;;;;;;;10577893;27;20264;-75
2023/12/04 20:31:03;;;;;;;22.13;10.15;;;;;;;;;;10550204;28;20032;-77
2023/12/04 20:36:12;;;;;;;29.53;10.63;;;;;;;;;;10565974;27;20130;-77
2023/12/04 20:41:15;;;;;;;32.00;10.57;;;;;;;;;;10569140;27;20044;-75
2023/12/04 20:46:19;;;;;;;32.13;10.43;;;;;;;;;;10568996;27;20331;-73
2023/12/04 20:51:23;;;;;;;16.87;5.87;;;;;;;;;;10544723;27;20982;-74
2023/12/04 20:56:26;;;;;;;26.17;11.10;;;;;;;;;;10547452;28;20759;-75
2023/12/04 21:01:31;;;;;;;23.13;10.25;;;;;;;;;;10561496;28;20653;-75
2023/12/04 21:06:36;;;;;;;21.63;6.20;;;;;;;;;;10568073;28;20400;-75
2023/12/04 21:11:41;;;;;;;18.90;8.17;;;;;;;;;;10563784;27;20390;-75
2023/12/04 21:16:47;;;;;;;22.73;8.05;;;;;;;;;;10533688;28;20449;-72
2023/12/04 21:22:02;;;;;;;20.13;7.10;;;;;;;;;;10577472;27;20043;-75
2023/12/04 21:27:06;;;;;;;22.85;6.55;;;;;;;;;;10565674;27;20064;-74
2023/12/04 21:32:12;;;;;;;21.30;8.00;;;;;;;;;;10530162;28;20503;-75
2023/12/04 21:37:15;;;;;;;16.33;6.93;;;;;;;;;;10560600;28;20237;-75
2023/12/04 21:42:20;;;;;;;13.32;4.80;;;;;;;;;;10546061;28;20043;-75
2023/12/04 21:47:27;;;;;;;11.37;5.37;;;;;;;;;;10565817;28;20074;-75
2023/12/04 21:52:31;;;;;;;7.60;3.70;;;;;;;;;;10566628;27;20104;-74
2023/12/04 21:57:37;;;;;;;4.28;2.28;;;;;;;;;;10559430;27;20222;-75
2023/12/04 22:02:45;;;;;;;8.67;3.90;;;;;;;;;;10551212;28;20042;-76
2023/12/04 22:07:48;;;;;;;9.73;4.43;;;;;;;;;;10564671;28;20055;-74
2023/12/04 22:12:52;;;;;;;12.50;5.68;;;;;;;;;;10527739;28;20485;-75
2023/12/04 22:17:56;;;;;;;5.53;2.67;;;;;;;;;;10548776;27;20131;-75
2023/12/04 22:23:00;;;;;;;16.13;6.10;;;;;;;;;;10549405;28;20116;-74
2023/12/04 22:28:03;;;;;;;11.03;5.50;;;;;;;;;;10554720;27;20073;-74
2023/12/04 22:33:09;;;;;;;6.40;3.97;;;;;;;;;;10554248;27;20112;-75
2023/12/04 22:38:12;;;;;;;7.00;2.57;;;;;;;;;;10555757;28;20043;-75
2023/12/04 22:43:15;;;;;;;11.57;3.37;;;;;;;;;;10532269;28;20127;-75
2023/12/04 22:48:20;;;;;;;9.50;4.73;;;;;;;;;;10559132;27;20079;-75
2023/12/04 22:53:23;;;;;;;8.80;3.23;;;;;;;;;;10539028;28;20397;-74
2023/12/04 22:58:26;;;;;;;9.27;4.00;;;;;;;;;;10534879;28;20116;-75
2023/12/04 23:03:30;;;;;;;7.13;3.97;;;;;;;;;;10556150;28;20096;-75
2023/12/04 23:08:42;;;;;;;;;;;;;;;;;;10537288;28;20116;-75
2023/12/04 23:13:45;;;;;;;3.03;1.50;;;;;;;;;;10558111;27;19926;-76
2023/12/04 23:18:49;;;;;;;12.60;5.03;;;;;;;;;;10564327;27;20586;-76
2023/12/04 23:23:54;;;;;;;7.13;1.97;;;;;;;;;;10564119;27;20073;-75
2023/12/04 23:28:57;;;;;;;17.97;3.87;;;;;;;;;;10566137;27;20054;-75
2023/12/04 23:34:02;;;;;;;9.67;4.53;;;;;;;;;;10556881;27;20484;-75
2023/12/04 23:39:04;;;;;;;;;;;;;;;;;;10559423;28;20055;-75
2023/12/04 23:44:07;;;;;;;5.40;2.80;;;;;;;;;;10555370;27;19931;-75
2023/12/04 23:49:15;;;;;;;11.83;4.30;;;;;;;;;;10540047;27;20128;-73
2023/12/04 23:54:18;;;;;;;11.67;4.47;;;;;;;;;;10542486;27;20623;-75
2023/12/04 23:59:21;;;;;;;18.70;6.43;;;;;;;;;;10545592;27;20047;-74
